createdAt,value
2023-08-22T00:02:31.027Z,8.73
2023-08-22T00:05:35.301Z,8.32
2023-08-22T00:08:38.459Z,8.20
2023-08-22T00:11:39.832Z,8.18
2023-08-22T00:14:41.148Z,8.93
2023-08-22T00:17:43.255Z,8.65
2023-08-22T00:20:44.919Z,7.82
2023-08-22T00:23:46.236Z,9.32
2023-08-22T00:26:47.610Z,8.27
2023-08-22T00:29:49.088Z,8.32
2023-08-22T00:32:50.436Z,8.45
2023-08-22T00:35:51.820Z,8.85
2023-08-22T00:38:53.147Z,9.50
2023-08-22T00:41:54.436Z,10.40
2023-08-22T00:44:56.022Z,9.00
2023-08-22T00:47:57.514Z,9.32
2023-08-22T00:50:58.992Z,9.70
2023-08-22T00:54:00.318Z,9.07
2023-08-22T00:57:01.672Z,9.98
2023-08-22T01:00:07.700Z,8.60
2023-08-22T01:03:10.057Z,10.32
2023-08-22T01:06:16.667Z,10.43
2023-08-22T01:09:28.465Z,9.15
2023-08-22T01:12:33.209Z,9.55
2023-08-22T01:15:35.702Z,9.25
2023-08-22T01:18:37.399Z,10.65
2023-08-22T01:21:51.662Z,10.88
2023-08-22T01:24:53.288Z,9.63
2023-08-22T01:28:13.740Z,10.10
2023-08-22T01:31:44.551Z,10.02
2023-08-22T01:34:47.072Z,10.38
2023-08-22T01:37:49.324Z,9.80
2023-08-22T01:40:51.548Z,9.35
2023-08-22T01:43:53.119Z,10.27
2023-08-22T01:46:54.461Z,10.00
2023-08-22T01:49:55.905Z,11.10
2023-08-22T01:52:58.929Z,10.15
2023-08-22T01:56:00.862Z,10.40
2023-08-22T01:59:02.195Z,10.85
2023-08-22T02:02:03.663Z,10.30
2023-08-22T02:05:05.058Z,10.70
2023-08-22T02:08:06.437Z,10.77
2023-08-22T02:11:07.843Z,10.77
2023-08-22T02:14:09.123Z,11.45
2023-08-22T02:17:10.560Z,10.68
2023-08-22T02:20:13.072Z,10.63
2023-08-22T02:23:14.384Z,11.07
2023-08-22T02:26:17.156Z,11.05
2023-08-22T02:29:18.563Z,10.65
2023-08-22T02:32:19.881Z,13.00
2023-08-22T02:35:21.250Z,11.55
2023-08-22T02:38:22.885Z,11.60
2023-08-22T02:41:24.167Z,11.85
2023-08-22T02:44:25.512Z,11.00
2023-08-22T02:47:26.809Z,10.68
2023-08-22T02:50:28.111Z,10.90
2023-08-22T02:53:29.424Z,12.00
2023-08-22T02:56:30.738Z,10.38
2023-08-22T02:59:32.063Z,11.93
2023-08-22T03:02:33.518Z,12.18
2023-08-22T03:05:34.967Z,10.93
2023-08-22T03:08:36.300Z,10.77
2023-08-22T03:11:38.547Z,11.32
2023-08-22T03:14:40.160Z,10.98
2023-08-22T03:17:41.752Z,11.65
2023-08-22T03:20:43.452Z,11.73
2023-08-22T03:23:44.720Z,11.02
2023-08-22T03:26:46.072Z,11.18
2023-08-22T03:29:47.481Z,11.07
2023-08-22T03:32:48.951Z,11.90
2023-08-22T03:35:50.782Z,10.35
2023-08-22T03:38:52.674Z,10.40
2023-08-22T03:41:53.977Z,11.02
2023-08-22T03:44:55.358Z,10.52
2023-08-22T03:47:56.678Z,10.50
2023-08-22T03:50:58.090Z,12.30
2023-08-22T03:53:59.379Z,11.90
2023-08-22T03:57:00.688Z,12.02
2023-08-22T04:00:02.004Z,12.00
2023-08-22T04:03:03.740Z,11.48
2023-08-22T04:06:07.419Z,11.95
2023-08-22T04:09:08.804Z,11.60
2023-08-22T04:12:10.348Z,11.05
2023-08-22T04:15:12.279Z,11.30
2023-08-22T04:18:13.616Z,11.93
2023-08-22T04:21:15.120Z,13.10
2023-08-22T04:24:16.432Z,12.00
2023-08-22T04:27:19.053Z,11.90
2023-08-22T04:30:20.837Z,10.90
2023-08-22T04:33:22.113Z,11.05
2023-08-22T04:36:23.451Z,11.98
2023-08-22T04:39:24.767Z,11.73
2023-08-22T04:42:26.094Z,12.35
2023-08-22T04:45:27.446Z,12.55
2023-08-22T04:48:28.786Z,12.93
2023-08-22T04:51:30.113Z,12.20
2023-08-22T04:54:31.421Z,11.35
2023-08-22T04:57:32.745Z,12.23
2023-08-22T05:00:34.035Z,12.68
2023-08-22T05:03:35.438Z,11.02
2023-08-22T05:06:36.787Z,12.10
2023-08-22T05:09:38.129Z,11.98
2023-08-22T05:12:39.438Z,11.25
2023-08-22T05:15:40.793Z,11.63
2023-08-22T05:18:44.961Z,11.85
2023-08-22T05:21:46.230Z,12.10
2023-08-22T05:24:47.505Z,11.02
2023-08-22T05:27:48.974Z,11.25
2023-08-22T05:30:50.260Z,10.85
2023-08-22T05:33:54.792Z,11.10
2023-08-22T05:36:56.100Z,9.90
2023-08-22T05:39:57.825Z,10.15
2023-08-22T05:42:59.237Z,9.75
2023-08-22T05:46:01.754Z,9.82
2023-08-22T05:49:03.160Z,9.98
2023-08-22T05:52:05.234Z,9.98
2023-08-22T05:55:07.336Z,9.68
2023-08-22T05:58:08.726Z,10.75
2023-08-22T06:01:10.814Z,10.30
2023-08-22T06:04:12.374Z,10.10
2023-08-22T06:07:14.169Z,10.02
2023-08-22T06:10:15.463Z,10.27
2023-08-22T06:13:17.054Z,10.30
2023-08-22T06:16:18.447Z,10.05
2023-08-22T06:19:19.836Z,9.95
2023-08-22T06:22:21.166Z,9.88
2023-08-22T06:25:23.169Z,10.35
2023-08-22T06:28:24.560Z,10.48
2023-08-22T06:31:26.139Z,10.25
2023-08-22T06:34:27.985Z,9.25
2023-08-22T06:37:29.321Z,9.32
2023-08-22T06:40:30.642Z,9.48
2023-08-22T06:43:31.962Z,8.48
2023-08-22T06:46:33.305Z,8.07
2023-08-22T06:49:34.636Z,8.18
2023-08-22T06:52:36.875Z,8.52
2023-08-22T06:55:38.187Z,8.13
2023-08-22T06:58:39.645Z,8.60
2023-08-22T07:01:40.993Z,8.30
2023-08-22T07:04:42.461Z,7.78
2023-08-22T07:07:44.276Z,7.18
2023-08-22T07:10:46.176Z,7.18
2023-08-22T07:13:47.508Z,7.68
2023-08-22T07:16:48.928Z,7.00
2023-08-22T07:19:51.698Z,7.07
2023-08-22T07:22:54.141Z,6.78
2023-08-22T07:25:55.503Z,6.63
2023-08-22T07:28:56.866Z,6.38
2023-08-22T07:32:00.947Z,6.50
2023-08-22T07:35:02.911Z,6.45
2023-08-22T07:38:04.372Z,6.35
2023-08-22T07:41:05.713Z,6.85
2023-08-22T07:44:07.040Z,5.68
2023-08-22T07:47:08.339Z,6.97
2023-08-22T07:50:09.799Z,6.10
2023-08-22T07:53:11.218Z,5.68
2023-08-22T07:56:12.627Z,6.60
2023-08-22T07:59:14.011Z,6.43
2023-08-22T08:02:16.061Z,6.82
2023-08-22T08:05:17.571Z,5.75
2023-08-22T08:08:18.963Z,5.40
2023-08-22T08:11:20.280Z,5.60
2023-08-22T08:14:21.578Z,5.53
2023-08-22T08:17:23.031Z,6.50
2023-08-22T08:20:25.740Z,5.15
2023-08-22T08:23:27.693Z,5.50
2023-08-22T08:26:29.029Z,6.45
2023-08-22T08:29:30.371Z,4.82
2023-08-22T08:32:32.224Z,5.03
2023-08-22T08:35:33.771Z,5.53
2023-08-22T08:38:35.157Z,5.55
2023-08-22T08:41:38.509Z,5.65
2023-08-22T08:44:40.130Z,4.88
2023-08-22T08:47:41.649Z,4.90
2023-08-22T08:50:43.275Z,5.40
2023-08-22T08:53:45.388Z,5.07
2023-08-22T08:56:46.732Z,4.68
2023-08-22T08:59:48.203Z,5.10
2023-08-22T09:02:49.772Z,4.88
2023-08-22T09:05:51.139Z,4.63
2023-08-22T09:09:05.618Z,4.70
2023-08-22T09:12:16.769Z,5.22
2023-08-22T09:15:19.475Z,4.82
2023-08-22T09:18:20.886Z,4.20
2023-08-22T09:21:22.646Z,4.45
2023-08-22T09:24:24.893Z,3.67
2023-08-22T09:27:29.280Z,3.53
2023-08-22T09:30:31.625Z,4.38
2023-08-22T09:33:45.540Z,3.53
2023-08-22T09:36:46.862Z,3.83
2023-08-22T09:39:54.633Z,4.10
2023-08-22T09:42:56.105Z,3.70
2023-08-22T09:45:58.234Z,3.80
2023-08-22T09:49:00.842Z,3.75
2023-08-22T09:52:02.873Z,3.53
2023-08-22T09:55:04.860Z,3.92
2023-08-22T09:58:06.265Z,4.82
2023-08-22T10:01:07.621Z,4.43
2023-08-22T10:04:10.162Z,4.75
2023-08-22T10:07:11.718Z,3.90
2023-08-22T10:10:13.047Z,4.55
2023-08-22T10:13:16.979Z,4.55
2023-08-22T10:16:19.302Z,4.45
2023-08-22T10:19:21.673Z,4.60
2023-08-22T10:22:22.980Z,4.75
2023-08-22T10:25:44.095Z,5.10
2023-08-22T10:28:45.514Z,4.70
2023-08-22T10:32:02.275Z,4.65
2023-08-22T10:35:06.843Z,4.82
2023-08-22T10:38:19.208Z,4.78
2023-08-22T10:41:24.532Z,4.78
2023-08-22T10:44:28.191Z,4.50
2023-08-22T10:47:31.693Z,5.28
2023-08-22T10:50:33.113Z,4.07
2023-08-22T10:53:44.868Z,5.40
2023-08-22T10:56:46.289Z,3.97
2023-08-22T10:59:59.781Z,3.85
2023-08-22T11:03:01.403Z,4.88
2023-08-22T11:06:10.522Z,4.28
2023-08-22T11:12:19.570Z,3.63
2023-08-22T11:15:20.995Z,4.30
2023-08-22T11:18:23.892Z,3.95
2023-08-22T11:21:25.890Z,3.80
2023-08-22T11:24:28.312Z,3.85
2023-08-22T11:27:29.762Z,3.55
2023-08-22T11:30:31.085Z,3.35
2023-08-22T11:33:51.736Z,3.10
2023-08-22T11:36:53.688Z,3.83
2023-08-22T11:39:55.253Z,3.45
2023-08-22T11:42:58.427Z,3.63
2023-08-22T11:46:01.124Z,3.40
2023-08-22T11:49:05.917Z,3.00
2023-08-22T11:52:08.810Z,3.35
2023-08-22T11:55:11.340Z,3.75
2023-08-22T11:58:13.478Z,3.40
2023-08-22T12:01:14.861Z,3.83
2023-08-22T12:04:17.155Z,3.47
2023-08-22T12:07:18.504Z,3.70
2023-08-22T12:10:19.929Z,2.75
2023-08-22T12:13:23.627Z,3.53
2023-08-22T12:16:25.163Z,3.05
2023-08-22T12:19:26.520Z,3.10
2023-08-22T12:22:27.843Z,2.90
2023-08-22T12:25:29.217Z,2.67
2023-08-22T12:28:30.554Z,3.67
2023-08-22T12:31:33.526Z,2.55
2023-08-22T12:34:34.964Z,3.38
2023-08-22T12:37:36.363Z,3.28
2023-08-22T12:40:39.289Z,3.25
2023-08-22T12:43:40.614Z,3.15
2023-08-22T12:46:42.368Z,3.22
2023-08-22T12:49:43.713Z,3.22
2023-08-22T12:52:45.309Z,2.47
2023-08-22T12:55:47.066Z,2.47
2023-08-22T12:58:48.377Z,2.80
2023-08-22T13:01:49.906Z,2.50
2023-08-22T13:04:51.634Z,3.45
2023-08-22T13:07:53.274Z,2.40
2023-08-22T13:10:55.318Z,3.22
2023-08-22T13:13:56.699Z,3.10
2023-08-22T13:16:58.109Z,2.97
2023-08-22T13:20:00.176Z,2.95
2023-08-22T13:23:01.586Z,2.72
2023-08-22T13:26:03.267Z,3.05
2023-08-22T13:29:04.588Z,2.17
2023-08-22T13:32:06.201Z,2.33
2023-08-22T13:35:10.146Z,2.83
2023-08-22T13:38:11.546Z,2.88
2023-08-22T13:41:12.871Z,2.90
2023-08-22T13:44:14.325Z,2.80
2023-08-22T13:47:15.600Z,2.88
2023-08-22T13:50:16.936Z,2.60
2023-08-22T13:53:18.310Z,3.20
2023-08-22T13:56:21.432Z,3.33
2023-08-22T13:59:22.857Z,2.88
2023-08-22T14:02:24.248Z,3.13
2023-08-22T14:05:25.664Z,3.08
2023-08-22T14:08:26.989Z,2.90
2023-08-22T14:11:28.336Z,2.33
2023-08-22T14:14:30.185Z,2.35
2023-08-22T14:17:31.520Z,2.95
2023-08-22T14:20:32.831Z,2.20
2023-08-22T14:23:34.202Z,2.47
2023-08-22T14:26:35.507Z,2.40
2023-08-22T14:29:36.803Z,2.28
2023-08-22T14:32:38.106Z,2.53
2023-08-22T14:35:42.953Z,2.55
2023-08-22T14:38:44.270Z,3.20
2023-08-22T14:41:46.364Z,3.08
2023-08-22T14:44:47.776Z,3.58
2023-08-22T14:47:49.761Z,2.40
2023-08-22T14:50:54.922Z,3.10
2023-08-22T14:53:57.004Z,2.35
2023-08-22T14:56:58.311Z,2.42
2023-08-22T14:59:59.651Z,2.63
2023-08-22T15:03:00.975Z,2.85
2023-08-22T15:06:02.647Z,2.42
2023-08-22T15:09:05.235Z,2.50
2023-08-22T15:15:09.631Z,3.30
2023-08-22T15:18:12.655Z,2.38
2023-08-22T15:21:16.294Z,2.35
2023-08-22T15:24:18.002Z,2.78
2023-08-22T15:27:20.633Z,2.53
2023-08-22T15:33:23.372Z,2.47
2023-08-22T15:36:24.694Z,2.63
2023-08-22T15:39:26.015Z,2.50
2023-08-22T15:42:27.339Z,2.47
2023-08-22T15:45:28.663Z,2.58
2023-08-22T15:48:30.097Z,2.78
2023-08-22T15:51:32.822Z,2.40
2023-08-22T15:57:35.397Z,2.72
2023-08-22T16:00:37.985Z,2.33
2023-08-22T16:06:40.809Z,2.67
2023-08-22T16:09:42.109Z,2.90
2023-08-22T16:12:43.443Z,2.65
2023-08-22T16:15:50.623Z,2.53
2023-08-22T16:18:51.952Z,2.67
2023-08-22T16:21:53.282Z,3.08
2023-08-22T16:24:54.609Z,2.83
2023-08-22T16:27:55.943Z,2.70
2023-08-22T16:30:57.313Z,2.88
2023-08-22T16:33:58.758Z,3.20
2023-08-22T16:37:00.136Z,2.60
2023-08-22T16:40:01.408Z,2.83
2023-08-22T16:43:02.700Z,2.80
2023-08-22T16:46:05.209Z,2.95
2023-08-22T16:49:08.541Z,4.00
2023-08-22T16:52:09.879Z,3.30
2023-08-22T16:55:12.842Z,3.30
2023-08-22T16:58:15.236Z,3.13
2023-08-22T17:01:16.543Z,3.28
2023-08-22T17:04:17.869Z,3.03
2023-08-22T17:07:19.510Z,3.10
2023-08-22T17:10:21.174Z,3.35
2023-08-22T17:13:23.624Z,3.50
2023-08-22T17:16:25.005Z,2.97
2023-08-22T17:19:26.346Z,3.40
2023-08-22T17:22:28.617Z,3.72
2023-08-22T17:25:29.985Z,3.55
2023-08-22T17:28:31.665Z,3.85
2023-08-22T17:31:32.962Z,3.63
2023-08-22T17:34:34.270Z,3.80
2023-08-22T17:37:35.574Z,3.65
2023-08-22T17:40:36.884Z,4.15
2023-08-22T17:43:39.176Z,4.00
2023-08-22T17:46:40.503Z,3.83
2023-08-22T17:49:41.881Z,4.40
2023-08-22T17:52:43.279Z,3.78
2023-08-22T17:55:44.695Z,3.78
2023-08-22T17:58:48.957Z,3.83
2023-08-22T18:01:50.460Z,3.95
2023-08-22T18:04:54.783Z,3.80
2023-08-22T18:07:56.138Z,4.80
2023-08-22T18:10:58.098Z,4.05
2023-08-22T18:13:59.417Z,4.15
2023-08-22T18:17:00.830Z,3.63
2023-08-22T18:20:03.728Z,4.00
2023-08-22T18:23:05.036Z,3.63
2023-08-22T18:26:08.512Z,3.50
2023-08-22T18:32:11.099Z,3.92
2023-08-22T18:35:12.535Z,4.43
2023-08-22T18:38:13.884Z,3.53
2023-08-22T18:41:15.568Z,4.00
2023-08-22T18:44:17.351Z,4.13
2023-08-22T18:47:18.674Z,4.15
2023-08-22T18:50:19.980Z,3.55
2023-08-22T18:53:21.325Z,3.83
2023-08-22T18:56:22.999Z,3.95
2023-08-22T18:59:24.354Z,3.97
2023-08-22T19:02:25.830Z,4.07
2023-08-22T19:05:27.170Z,4.00
2023-08-22T19:08:28.606Z,4.25
2023-08-22T19:11:29.883Z,4.10
2023-08-22T19:14:31.222Z,4.32
2023-08-22T19:17:33.010Z,4.43
2023-08-22T19:20:35.319Z,4.25
2023-08-22T19:23:36.637Z,3.70
2023-08-22T19:26:37.934Z,4.15
2023-08-22T19:29:39.270Z,3.80
2023-08-22T19:33:02.287Z,3.85
2023-08-22T19:36:02.443Z,3.85
2023-08-22T19:39:04.759Z,3.92
2023-08-22T19:42:06.351Z,3.67
2023-08-22T19:45:08.991Z,4.30
2023-08-22T19:48:10.439Z,3.75
2023-08-22T19:51:11.830Z,3.90
2023-08-22T19:54:13.166Z,3.80
2023-08-22T19:57:14.697Z,4.22
2023-08-22T20:00:16.835Z,3.60
2023-08-22T20:03:18.215Z,3.88
2023-08-22T20:06:19.596Z,3.67
2023-08-22T20:09:21.407Z,3.72
2023-08-22T20:12:22.825Z,3.50
2023-08-22T20:15:24.272Z,3.70
2023-08-22T20:18:25.570Z,3.55
2023-08-22T20:21:27.029Z,3.65
2023-08-22T20:24:28.334Z,4.78
2023-08-22T20:27:29.671Z,3.72
2023-08-22T20:30:31.127Z,3.63
2023-08-22T20:33:32.493Z,3.88
2023-08-22T20:36:33.844Z,3.80
2023-08-22T20:39:35.233Z,4.47
2023-08-22T20:42:37.139Z,4.00
2023-08-22T20:45:38.494Z,4.15
2023-08-22T20:48:39.875Z,4.05
2023-08-22T20:51:41.216Z,3.80
2023-08-22T20:54:42.555Z,3.75
2023-08-22T20:57:44.458Z,4.00
2023-08-22T21:00:46.204Z,3.72
2023-08-22T21:03:47.648Z,3.70
2023-08-22T21:06:49.009Z,4.30
2023-08-22T21:09:50.438Z,4.13
2023-08-22T21:12:51.755Z,4.32
2023-08-22T21:15:53.336Z,4.43
2023-08-22T21:18:54.954Z,4.28
2023-08-22T21:21:56.266Z,3.92
2023-08-22T21:24:57.581Z,4.50
2023-08-22T21:27:58.851Z,4.63
2023-08-22T21:31:00.241Z,4.38
2023-08-22T21:34:02.969Z,4.47
2023-08-22T21:37:04.410Z,4.68
2023-08-22T21:40:06.103Z,4.78
2023-08-22T21:43:07.444Z,4.38
2023-08-22T21:46:08.821Z,4.47
2023-08-22T21:49:10.662Z,4.22
2023-08-22T21:52:12.856Z,4.78
2023-08-22T21:55:14.326Z,4.55
2023-08-22T21:58:15.693Z,4.90
2023-08-22T22:01:17.046Z,4.32
2023-08-22T22:04:19.123Z,4.45
2023-08-22T22:07:20.437Z,4.75
2023-08-22T22:10:21.785Z,5.43
2023-08-22T22:13:23.193Z,5.00
2023-08-22T22:16:30.960Z,4.90
2023-08-22T22:19:36.362Z,5.00
2023-08-22T22:22:37.676Z,5.90
2023-08-22T22:25:38.986Z,4.82
2023-08-22T22:28:40.993Z,4.85
2023-08-22T22:31:42.348Z,6.20
2023-08-22T22:34:43.647Z,4.90
2023-08-22T22:37:45.370Z,5.90
2023-08-22T22:40:47.454Z,4.88
2023-08-22T22:43:48.801Z,5.38
2023-08-22T22:46:50.152Z,5.43
2023-08-22T22:49:53.417Z,5.25
2023-08-22T22:52:54.923Z,5.88
2023-08-22T22:55:56.311Z,5.13
2023-08-22T22:58:57.600Z,5.32
2023-08-22T23:01:58.909Z,5.57
2023-08-22T23:05:00.239Z,5.63
2023-08-22T23:08:02.096Z,7.40
2023-08-22T23:11:04.822Z,6.40
2023-08-22T23:14:07.045Z,6.97
2023-08-22T23:17:11.908Z,7.40
2023-08-22T23:20:14.161Z,6.10
2023-08-22T23:23:15.477Z,5.93
2023-08-22T23:26:16.783Z,6.10
2023-08-22T23:29:18.110Z,5.72
2023-08-22T23:32:19.438Z,6.97
2023-08-22T23:35:20.840Z,5.80
2023-08-22T23:38:22.167Z,6.63
2023-08-22T23:41:23.503Z,5.97
2023-08-22T23:44:24.837Z,6.07
2023-08-22T23:47:26.150Z,6.45
2023-08-22T23:50:27.584Z,6.30
2023-08-22T23:53:28.913Z,6.60
2023-08-22T23:56:30.204Z,6.10
2023-08-22T23:59:32.550Z,6.63
